sensor_id;sensor_type;location;lat;lon;timestamp;temperature;humidity
64817;DHT22;53289;45.602;11.904;2023-03-04T00:02:00;3.20;73.30
64817;DHT22;53289;45.602;11.904;2023-03-04T00:04:26;3.30;73.70
64817;DHT22;53289;45.602;11.904;2023-03-04T00:06:51;3.30;73.40
64817;DHT22;53289;45.602;11.904;2023-03-04T00:09:17;3.30;73.80
64817;DHT22;53289;45.602;11.904;2023-03-04T00:11:43;3.20;73.80
64817;DHT22;53289;45.602;11.904;2023-03-04T00:14:09;3.10;74.00
64817;DHT22;53289;45.602;11.904;2023-03-04T00:16:35;3.00;74.20
64817;DHT22;53289;45.602;11.904;2023-03-04T00:19:01;3.00;74.10
64817;DHT22;53289;45.602;11.904;2023-03-04T00:21:26;2.90;74.00
64817;DHT22;53289;45.602;11.904;2023-03-04T00:23:52;2.80;74.10
64817;DHT22;53289;45.602;11.904;2023-03-04T00:26:18;2.80;74.10
64817;DHT22;53289;45.602;11.904;2023-03-04T00:28:44;2.70;74.50
64817;DHT22;53289;45.602;11.904;2023-03-04T00:31:10;2.70;74.60
64817;DHT22;53289;45.602;11.904;2023-03-04T00:33:36;2.60;74.90
64817;DHT22;53289;45.602;11.904;2023-03-04T00:36:03;2.60;75.00
64817;DHT22;53289;45.602;11.904;2023-03-04T00:38:29;2.60;75.00
64817;DHT22;53289;45.602;11.904;2023-03-04T00:40:55;2.60;75.20
64817;DHT22;53289;45.602;11.904;2023-03-04T00:43:21;2.60;74.90
64817;DHT22;53289;45.602;11.904;2023-03-04T00:45:47;2.60;74.60
64817;DHT22;53289;45.602;11.904;2023-03-04T00:48:13;2.50;75.30
64817;DHT22;53289;45.602;11.904;2023-03-04T00:50:41;2.50;75.10
64817;DHT22;53289;45.602;11.904;2023-03-04T00:53:07;2.50;75.10
64817;DHT22;53289;45.602;11.904;2023-03-04T00:55:33;2.50;75.30
64817;DHT22;53289;45.602;11.904;2023-03-04T00:57:59;2.50;74.90
64817;DHT22;53289;45.602;11.904;2023-03-04T01:00:25;2.40;75.00
64817;DHT22;53289;45.602;11.904;2023-03-04T01:02:51;2.40;74.90
64817;DHT22;53289;45.602;11.904;2023-03-04T01:05:17;2.40;74.80
64817;DHT22;53289;45.602;11.904;2023-03-04T01:07:43;2.40;74.80
64817;DHT22;53289;45.602;11.904;2023-03-04T01:10:10;2.40;75.00
64817;DHT22;53289;45.602;11.904;2023-03-04T01:12:36;2.40;75.40
64817;DHT22;53289;45.602;11.904;2023-03-04T01:15:05;2.50;75.60
64817;DHT22;53289;45.602;11.904;2023-03-04T01:17:30;2.50;75.40
64817;DHT22;53289;45.602;11.904;2023-03-04T01:19:56;2.60;75.40
64817;DHT22;53289;45.602;11.904;2023-03-04T01:22:22;2.60;75.10
64817;DHT22;53289;45.602;11.904;2023-03-04T01:24:48;2.60;75.40
64817;DHT22;53289;45.602;11.904;2023-03-04T01:27:14;2.60;75.50
64817;DHT22;53289;45.602;11.904;2023-03-04T01:29:39;2.60;75.60
64817;DHT22;53289;45.602;11.904;2023-03-04T01:32:05;2.60;75.50
64817;DHT22;53289;45.602;11.904;2023-03-04T01:34:31;2.50;75.40
64817;DHT22;53289;45.602;11.904;2023-03-04T01:36:57;2.50;75.30
64817;DHT22;53289;45.602;11.904;2023-03-04T01:39:23;2.50;75.30
64817;DHT22;53289;45.602;11.904;2023-03-04T01:41:49;2.40;75.20
64817;DHT22;53289;45.602;11.904;2023-03-04T01:44:15;2.40;75.40
64817;DHT22;53289;45.602;11.904;2023-03-04T01:46:48;2.30;75.50
64817;DHT22;53289;45.602;11.904;2023-03-04T01:49:14;2.30;75.70
64817;DHT22;53289;45.602;11.904;2023-03-04T01:51:48;2.30;75.80
64817;DHT22;53289;45.602;11.904;2023-03-04T01:54:15;2.30;76.00
64817;DHT22;53289;45.602;11.904;2023-03-04T01:56:44;2.30;75.80
64817;DHT22;53289;45.602;11.904;2023-03-04T01:59:17;2.30;76.20
64817;DHT22;53289;45.602;11.904;2023-03-04T02:01:55;2.30;76.20
64817;DHT22;53289;45.602;11.904;2023-03-04T02:04:24;2.20;75.80
64817;DHT22;53289;45.602;11.904;2023-03-04T02:06:51;2.20;75.80
64817;DHT22;53289;45.602;11.904;2023-03-04T02:09:17;2.20;75.40
64817;DHT22;53289;45.602;11.904;2023-03-04T02:11:44;2.20;75.50
64817;DHT22;53289;45.602;11.904;2023-03-04T02:14:11;2.20;75.60
64817;DHT22;53289;45.602;11.904;2023-03-04T02:16:38;2.20;75.90
64817;DHT22;53289;45.602;11.904;2023-03-04T02:19:06;2.10;75.90
64817;DHT22;53289;45.602;11.904;2023-03-04T02:21:37;2.10;75.60
64817;DHT22;53289;45.602;11.904;2023-03-04T02:26:33;2.00;75.80
64817;DHT22;53289;45.602;11.904;2023-03-04T02:29:04;2.00;75.90
64817;DHT22;53289;45.602;11.904;2023-03-04T02:31:53;1.90;76.30
64817;DHT22;53289;45.602;11.904;2023-03-04T02:34:20;1.90;76.50
64817;DHT22;53289;45.602;11.904;2023-03-04T02:36:48;1.90;76.40
64817;DHT22;53289;45.602;11.904;2023-03-04T02:39:34;1.80;76.50
64817;DHT22;53289;45.602;11.904;2023-03-04T02:42:02;1.80;76.40
64817;DHT22;53289;45.602;11.904;2023-03-04T02:44:29;1.70;76.50
64817;DHT22;53289;45.602;11.904;2023-03-04T02:46:57;1.70;76.60
64817;DHT22;53289;45.602;11.904;2023-03-04T02:49:24;1.70;76.20
64817;DHT22;53289;45.602;11.904;2023-03-04T02:51:52;1.70;76.40
64817;DHT22;53289;45.602;11.904;2023-03-04T02:54:23;1.60;76.20
64817;DHT22;53289;45.602;11.904;2023-03-04T02:56:53;1.60;76.20
64817;DHT22;53289;45.602;11.904;2023-03-04T02:59:20;1.60;76.50
64817;DHT22;53289;45.602;11.904;2023-03-04T03:01:46;1.60;76.80
64817;DHT22;53289;45.602;11.904;2023-03-04T03:04:13;1.60;76.90
64817;DHT22;53289;45.602;11.904;2023-03-04T03:06:39;1.60;76.90
64817;DHT22;53289;45.602;11.904;2023-03-04T03:09:05;1.50;76.60
64817;DHT22;53289;45.602;11.904;2023-03-04T03:11:32;1.50;76.60
64817;DHT22;53289;45.602;11.904;2023-03-04T03:13:58;1.50;77.00
64817;DHT22;53289;45.602;11.904;2023-03-04T03:16:24;1.50;77.00
64817;DHT22;53289;45.602;11.904;2023-03-04T03:18:50;1.40;77.00
64817;DHT22;53289;45.602;11.904;2023-03-04T03:21:16;1.40;77.00
64817;DHT22;53289;45.602;11.904;2023-03-04T03:23:42;1.30;77.00
64817;DHT22;53289;45.602;11.904;2023-03-04T03:26:08;1.30;76.90
64817;DHT22;53289;45.602;11.904;2023-03-04T03:28:34;1.30;77.00
64817;DHT22;53289;45.602;11.904;2023-03-04T03:31:00;1.30;77.20
64817;DHT22;53289;45.602;11.904;2023-03-04T03:33:26;1.20;77.00
64817;DHT22;53289;45.602;11.904;2023-03-04T03:35:52;1.20;77.10
64817;DHT22;53289;45.602;11.904;2023-03-04T03:38:18;1.10;77.20
64817;DHT22;53289;45.602;11.904;2023-03-04T03:40:44;1.10;77.10
64817;DHT22;53289;45.602;11.904;2023-03-04T03:43:10;1.10;77.00
64817;DHT22;53289;45.602;11.904;2023-03-04T03:45:37;1.10;76.90
64817;DHT22;53289;45.602;11.904;2023-03-04T03:48:03;1.10;76.90
64817;DHT22;53289;45.602;11.904;2023-03-04T03:50:28;1.10;77.10
64817;DHT22;53289;45.602;11.904;2023-03-04T03:52:54;1.10;77.20
64817;DHT22;53289;45.602;11.904;2023-03-04T03:55:21;1.10;77.30
64817;DHT22;53289;45.602;11.904;2023-03-04T03:57:47;1.20;77.30
64817;DHT22;53289;45.602;11.904;2023-03-04T04:00:13;1.20;77.40
64817;DHT22;53289;45.602;11.904;2023-03-04T04:02:40;1.20;77.30
64817;DHT22;53289;45.602;11.904;2023-03-04T04:05:07;1.30;77.20
64817;DHT22;53289;45.602;11.904;2023-03-04T04:07:34;1.20;77.40
64817;DHT22;53289;45.602;11.904;2023-03-04T04:10:00;1.20;77.50
64817;DHT22;53289;45.602;11.904;2023-03-04T04:12:26;1.20;77.30
64817;DHT22;53289;45.602;11.904;2023-03-04T04:14:52;1.10;77.30
64817;DHT22;53289;45.602;11.904;2023-03-04T04:17:18;1.00;77.30
64817;DHT22;53289;45.602;11.904;2023-03-04T04:19:44;1.00;77.50
64817;DHT22;53289;45.602;11.904;2023-03-04T04:22:14;0.90;77.50
64817;DHT22;53289;45.602;11.904;2023-03-04T04:24:41;0.90;77.80
64817;DHT22;53289;45.602;11.904;2023-03-04T04:27:07;0.90;77.70
64817;DHT22;53289;45.602;11.904;2023-03-04T04:29:33;0.90;77.60
64817;DHT22;53289;45.602;11.904;2023-03-04T04:31:59;0.80;77.40
64817;DHT22;53289;45.602;11.904;2023-03-04T04:34:25;0.80;77.80
64817;DHT22;53289;45.602;11.904;2023-03-04T04:36:51;0.80;77.90
64817;DHT22;53289;45.602;11.904;2023-03-04T04:39:17;0.80;77.60
64817;DHT22;53289;45.602;11.904;2023-03-04T04:41:44;0.80;77.80
64817;DHT22;53289;45.602;11.904;2023-03-04T04:44:11;0.90;77.80
64817;DHT22;53289;45.602;11.904;2023-03-04T04:46:37;0.80;77.70
64817;DHT22;53289;45.602;11.904;2023-03-04T04:49:04;0.80;77.70
64817;DHT22;53289;45.602;11.904;2023-03-04T04:51:31;0.80;77.60
64817;DHT22;53289;45.602;11.904;2023-03-04T04:53:58;0.70;77.80
64817;DHT22;53289;45.602;11.904;2023-03-04T04:56:25;0.70;77.80
64817;DHT22;53289;45.602;11.904;2023-03-04T04:58:52;0.70;78.30
64817;DHT22;53289;45.602;11.904;2023-03-04T05:01:19;0.70;78.10
64817;DHT22;53289;45.602;11.904;2023-03-04T05:03:45;0.70;78.50
64817;DHT22;53289;45.602;11.904;2023-03-04T05:06:12;0.70;78.60
64817;DHT22;53289;45.602;11.904;2023-03-04T05:08:38;0.70;78.40
64817;DHT22;53289;45.602;11.904;2023-03-04T05:11:05;0.60;77.70
64817;DHT22;53289;45.602;11.904;2023-03-04T05:13:31;0.60;77.60
64817;DHT22;53289;45.602;11.904;2023-03-04T05:15:57;0.60;77.80
64817;DHT22;53289;45.602;11.904;2023-03-04T05:18:24;0.50;77.80
64817;DHT22;53289;45.602;11.904;2023-03-04T05:20:52;0.50;77.80
64817;DHT22;53289;45.602;11.904;2023-03-04T05:23:18;0.40;77.80
64817;DHT22;53289;45.602;11.904;2023-03-04T05:25:44;0.30;78.00
64817;DHT22;53289;45.602;11.904;2023-03-04T05:28:10;0.30;78.20
64817;DHT22;53289;45.602;11.904;2023-03-04T05:30:38;0.30;78.20
64817;DHT22;53289;45.602;11.904;2023-03-04T05:33:04;0.30;78.20
64817;DHT22;53289;45.602;11.904;2023-03-04T05:35:31;0.30;78.20
64817;DHT22;53289;45.602;11.904;2023-03-04T05:37:58;0.20;78.30
64817;DHT22;53289;45.602;11.904;2023-03-04T05:40:23;0.20;78.40
64817;DHT22;53289;45.602;11.904;2023-03-04T05:42:50;0.20;78.60
64817;DHT22;53289;45.602;11.904;2023-03-04T05:45:17;0.20;78.50
64817;DHT22;53289;45.602;11.904;2023-03-04T05:47:43;0.20;78.60
64817;DHT22;53289;45.602;11.904;2023-03-04T05:50:09;0.20;78.60
64817;DHT22;53289;45.602;11.904;2023-03-04T05:52:35;0.10;78.40
64817;DHT22;53289;45.602;11.904;2023-03-04T05:55:01;0.10;78.20
64817;DHT22;53289;45.602;11.904;2023-03-04T05:57:27;0.10;78.40
64817;DHT22;53289;45.602;11.904;2023-03-04T05:59:53;0.10;78.50
64817;DHT22;53289;45.602;11.904;2023-03-04T06:02:20;0.10;78.50
64817;DHT22;53289;45.602;11.904;2023-03-04T06:04:46;0.20;78.70
64817;DHT22;53289;45.602;11.904;2023-03-04T06:07:12;0.20;78.80
64817;DHT22;53289;45.602;11.904;2023-03-04T06:09:38;0.20;78.70
64817;DHT22;53289;45.602;11.904;2023-03-04T06:12:04;0.30;78.70
64817;DHT22;53289;45.602;11.904;2023-03-04T06:14:30;0.30;79.00
64817;DHT22;53289;45.602;11.904;2023-03-04T06:16:56;0.40;79.20
64817;DHT22;53289;45.602;11.904;2023-03-04T06:19:22;0.60;79.30
64817;DHT22;53289;45.602;11.904;2023-03-04T06:21:48;0.70;79.20
64817;DHT22;53289;45.602;11.904;2023-03-04T06:24:14;0.90;79.30
64817;DHT22;53289;45.602;11.904;2023-03-04T06:26:40;1.00;79.40
64817;DHT22;53289;45.602;11.904;2023-03-04T06:29:06;1.20;79.60
64817;DHT22;53289;45.602;11.904;2023-03-04T06:31:32;1.40;79.50
64817;DHT22;53289;45.602;11.904;2023-03-04T06:33:58;1.60;79.40
64817;DHT22;53289;45.602;11.904;2023-03-04T06:36:24;1.80;79.30
64817;DHT22;53289;45.602;11.904;2023-03-04T06:38:50;2.10;79.10
64817;DHT22;53289;45.602;11.904;2023-03-04T06:41:16;2.30;78.70
64817;DHT22;53289;45.602;11.904;2023-03-04T06:43:42;2.50;78.60
64817;DHT22;53289;45.602;11.904;2023-03-04T06:46:09;2.60;78.40
64817;DHT22;53289;45.602;11.904;2023-03-04T06:48:35;2.90;78.50
64817;DHT22;53289;45.602;11.904;2023-03-04T06:51:08;3.00;78.70
64817;DHT22;53289;45.602;11.904;2023-03-04T06:53:36;3.30;78.20
64817;DHT22;53289;45.602;11.904;2023-03-04T06:56:02;3.60;78.50
64817;DHT22;53289;45.602;11.904;2023-03-04T06:58:28;3.90;78.30
64817;DHT22;53289;45.602;11.904;2023-03-04T07:00:54;4.10;78.00
64817;DHT22;53289;45.602;11.904;2023-03-04T07:03:20;4.40;77.80
64817;DHT22;53289;45.602;11.904;2023-03-04T07:05:46;4.60;77.60
64817;DHT22;53289;45.602;11.904;2023-03-04T07:08:12;4.80;77.50
64817;DHT22;53289;45.602;11.904;2023-03-04T07:10:39;5.00;77.40
64817;DHT22;53289;45.602;11.904;2023-03-04T07:13:05;5.30;77.40
64817;DHT22;53289;45.602;11.904;2023-03-04T07:15:31;5.50;77.60
64817;DHT22;53289;45.602;11.904;2023-03-04T07:17:57;5.90;77.50
64817;DHT22;53289;45.602;11.904;2023-03-04T07:20:23;6.20;77.00
64817;DHT22;53289;45.602;11.904;2023-03-04T07:22:49;6.60;76.80
64817;DHT22;53289;45.602;11.904;2023-03-04T07:25:15;6.90;76.10
64817;DHT22;53289;45.602;11.904;2023-03-04T07:27:42;7.10;75.80
64817;DHT22;53289;45.602;11.904;2023-03-04T07:30:09;7.40;75.10
64817;DHT22;53289;45.602;11.904;2023-03-04T07:32:35;7.60;74.70
64817;DHT22;53289;45.602;11.904;2023-03-04T07:35:02;7.90;74.40
64817;DHT22;53289;45.602;11.904;2023-03-04T07:37:28;8.10;73.90
64817;DHT22;53289;45.602;11.904;2023-03-04T07:39:54;8.30;73.30
64817;DHT22;53289;45.602;11.904;2023-03-04T07:42:20;8.50;73.20
64817;DHT22;53289;45.602;11.904;2023-03-04T07:44:46;8.80;72.30
64817;DHT22;53289;45.602;11.904;2023-03-04T07:47:13;9.00;71.60
64817;DHT22;53289;45.602;11.904;2023-03-04T07:49:38;9.30;70.30
64817;DHT22;53289;45.602;11.904;2023-03-04T07:52:05;9.60;69.70
64817;DHT22;53289;45.602;11.904;2023-03-04T07:54:31;9.80;69.60
64817;DHT22;53289;45.602;11.904;2023-03-04T07:56:57;10.00;69.20
64817;DHT22;53289;45.602;11.904;2023-03-04T07:59:23;10.20;68.80
64817;DHT22;53289;45.602;11.904;2023-03-04T08:01:50;10.30;68.60
64817;DHT22;53289;45.602;11.904;2023-03-04T08:04:16;10.40;68.50
64817;DHT22;53289;45.602;11.904;2023-03-04T08:06:42;10.50;68.10
64817;DHT22;53289;45.602;11.904;2023-03-04T08:09:10;10.60;68.10
64817;DHT22;53289;45.602;11.904;2023-03-04T08:11:38;10.80;67.90
64817;DHT22;53289;45.602;11.904;2023-03-04T08:14:05;10.90;68.00
64817;DHT22;53289;45.602;11.904;2023-03-04T08:16:31;11.10;66.80
64817;DHT22;53289;45.602;11.904;2023-03-04T08:18:59;11.20;67.40
64817;DHT22;53289;45.602;11.904;2023-03-04T08:21:26;11.30;67.00
64817;DHT22;53289;45.602;11.904;2023-03-04T08:23:53;11.50;66.40
64817;DHT22;53289;45.602;11.904;2023-03-04T08:26:23;11.60;66.10
64817;DHT22;53289;45.602;11.904;2023-03-04T08:28:50;11.80;65.60
64817;DHT22;53289;45.602;11.904;2023-03-04T08:31:17;11.90;65.60
64817;DHT22;53289;45.602;11.904;2023-03-04T08:33:43;12.00;65.40
64817;DHT22;53289;45.602;11.904;2023-03-04T08:36:10;12.20;64.90
64817;DHT22;53289;45.602;11.904;2023-03-04T08:38:36;12.40;64.20
64817;DHT22;53289;45.602;11.904;2023-03-04T08:41:02;12.60;63.80
64817;DHT22;53289;45.602;11.904;2023-03-04T08:43:29;12.90;62.40
64817;DHT22;53289;45.602;11.904;2023-03-04T08:45:56;13.20;62.40
64817;DHT22;53289;45.602;11.904;2023-03-04T08:48:22;13.40;61.00
64817;DHT22;53289;45.602;11.904;2023-03-04T08:50:49;13.70;60.50
64817;DHT22;53289;45.602;11.904;2023-03-04T08:53:16;13.90;59.60
64817;DHT22;53289;45.602;11.904;2023-03-04T08:55:42;14.20;56.30
64817;DHT22;53289;45.602;11.904;2023-03-04T08:58:09;14.40;56.70
64817;DHT22;53289;45.602;11.904;2023-03-04T09:00:38;14.70;56.70
64817;DHT22;53289;45.602;11.904;2023-03-04T09:03:04;14.80;55.50
64817;DHT22;53289;45.602;11.904;2023-03-04T09:05:31;14.80;55.80
64817;DHT22;53289;45.602;11.904;2023-03-04T09:07:57;14.80;55.80
64817;DHT22;53289;45.602;11.904;2023-03-04T09:10:23;14.80;55.90
64817;DHT22;53289;45.602;11.904;2023-03-04T09:12:49;14.90;55.00
64817;DHT22;53289;45.602;11.904;2023-03-04T09:15:16;15.10;54.10
64817;DHT22;53289;45.602;11.904;2023-03-04T09:17:42;15.30;53.60
64817;DHT22;53289;45.602;11.904;2023-03-04T09:20:09;15.40;53.30
64817;DHT22;53289;45.602;11.904;2023-03-04T09:22:36;15.50;52.80
64817;DHT22;53289;45.602;11.904;2023-03-04T09:25:03;15.70;52.60
64817;DHT22;53289;45.602;11.904;2023-03-04T09:27:29;15.90;50.90
64817;DHT22;53289;45.602;11.904;2023-03-04T09:29:55;15.90;51.20
64817;DHT22;53289;45.602;11.904;2023-03-04T09:32:21;16.00;50.60
64817;DHT22;53289;45.602;11.904;2023-03-04T09:34:47;15.90;51.30
64817;DHT22;53289;45.602;11.904;2023-03-04T09:37:13;15.90;52.00
64817;DHT22;53289;45.602;11.904;2023-03-04T09:39:39;16.00;52.20
64817;DHT22;53289;45.602;11.904;2023-03-04T09:42:09;16.30;51.90
64817;DHT22;53289;45.602;11.904;2023-03-04T09:44:42;16.50;51.60
64817;DHT22;53289;45.602;11.904;2023-03-04T09:47:13;16.60;51.40
64817;DHT22;53289;45.602;11.904;2023-03-04T09:49:42;16.60;51.00
64817;DHT22;53289;45.602;11.904;2023-03-04T09:52:25;16.70;48.90
64817;DHT22;53289;45.602;11.904;2023-03-04T09:55:24;16.90;48.00
64817;DHT22;53289;45.602;11.904;2023-03-04T10:00:45;17.30;47.70
64817;DHT22;53289;45.602;11.904;2023-03-04T10:03:18;17.40;44.80
64817;DHT22;53289;45.602;11.904;2023-03-04T10:13:57;17.90;43.90
64817;DHT22;53289;45.602;11.904;2023-03-04T10:16:37;18.20;42.40
64817;DHT22;53289;45.602;11.904;2023-03-04T10:21:56;18.60;41.80
64817;DHT22;53289;45.602;11.904;2023-03-04T10:24:26;18.90;39.50
64817;DHT22;53289;45.602;11.904;2023-03-04T10:27:11;19.10;39.20
64817;DHT22;53289;45.602;11.904;2023-03-04T10:29:40;19.30;38.70
64817;DHT22;53289;45.602;11.904;2023-03-04T10:32:12;19.50;38.90
64817;DHT22;53289;45.602;11.904;2023-03-04T10:34:38;19.50;39.20
64817;DHT22;53289;45.602;11.904;2023-03-04T10:37:05;19.40;39.80
64817;DHT22;53289;45.602;11.904;2023-03-04T10:39:46;19.40;40.20
64817;DHT22;53289;45.602;11.904;2023-03-04T10:44:51;18.90;41.30
64817;DHT22;53289;45.602;11.904;2023-03-04T10:47:18;19.00;38.40
64817;DHT22;53289;45.602;11.904;2023-03-04T10:49:55;19.20;38.40
64817;DHT22;53289;45.602;11.904;2023-03-04T10:52:29;19.50;37.70
64817;DHT22;53289;45.602;11.904;2023-03-04T10:55:01;19.90;36.50
64817;DHT22;53289;45.602;11.904;2023-03-04T10:57:38;20.20;36.40
64817;DHT22;53289;45.602;11.904;2023-03-04T11:00:27;20.40;36.20
64817;DHT22;53289;45.602;11.904;2023-03-04T11:03:29;20.60;35.60
64817;DHT22;53289;45.602;11.904;2023-03-04T11:08:30;20.90;36.40
64817;DHT22;53289;45.602;11.904;2023-03-04T11:10:56;21.00;35.70
64817;DHT22;53289;45.602;11.904;2023-03-04T11:13:24;21.10;35.50
64817;DHT22;53289;45.602;11.904;2023-03-04T11:15:56;21.00;36.00
64817;DHT22;53289;45.602;11.904;2023-03-04T11:18:48;20.90;36.70
64817;DHT22;53289;45.602;11.904;2023-03-04T11:21:21;21.10;36.30
64817;DHT22;53289;45.602;11.904;2023-03-04T11:23:51;21.50;34.90
64817;DHT22;53289;45.602;11.904;2023-03-04T11:26:28;21.60;34.80
64817;DHT22;53289;45.602;11.904;2023-03-04T11:29:12;21.70;35.50
64817;DHT22;53289;45.602;11.904;2023-03-04T11:31:52;21.90;34.10
64817;DHT22;53289;45.602;11.904;2023-03-04T11:44:48;22.40;34.20
64817;DHT22;53289;45.602;11.904;2023-03-04T11:50:20;22.60;33.60
64817;DHT22;53289;45.602;11.904;2023-03-04T11:52:50;22.70;32.90
64817;DHT22;53289;45.602;11.904;2023-03-04T11:55:37;22.90;32.80
64817;DHT22;53289;45.602;11.904;2023-03-04T11:58:39;22.90;32.70
64817;DHT22;53289;45.602;11.904;2023-03-04T12:01:15;23.30;32.50
64817;DHT22;53289;45.602;11.904;2023-03-04T12:32:13;23.60;31.20
64817;DHT22;53289;45.602;11.904;2023-03-04T12:43:46;23.10;31.60
64817;DHT22;53289;45.602;11.904;2023-03-04T12:46:10;23.10;32.00
64817;DHT22;53289;45.602;11.904;2023-03-04T12:48:43;23.20;32.40
64817;DHT22;53289;45.602;11.904;2023-03-04T12:59:03;23.20;32.10
64817;DHT22;53289;45.602;11.904;2023-03-04T13:10:13;23.50;31.30
64817;DHT22;53289;45.602;11.904;2023-03-04T13:12:57;23.50;31.10
64817;DHT22;53289;45.602;11.904;2023-03-04T13:23:01;22.60;32.80
64817;DHT22;53289;45.602;11.904;2023-03-04T13:25:36;22.70;32.50
64817;DHT22;53289;45.602;11.904;2023-03-04T13:28:17;22.90;32.00
64817;DHT22;53289;45.602;11.904;2023-03-04T13:43:46;23.40;31.30
64817;DHT22;53289;45.602;11.904;2023-03-04T13:51:32;23.20;31.80
64817;DHT22;53289;45.602;11.904;2023-03-04T14:04:21;23.00;31.50
64817;DHT22;53289;45.602;11.904;2023-03-04T14:06:49;22.90;31.80
64817;DHT22;53289;45.602;11.904;2023-03-04T14:09:37;22.80;32.00
64817;DHT22;53289;45.602;11.904;2023-03-04T14:12:13;22.90;31.40
64817;DHT22;53289;45.602;11.904;2023-03-04T14:14:57;23.10;30.80
64817;DHT22;53289;45.602;11.904;2023-03-04T14:17:32;23.10;30.50
64817;DHT22;53289;45.602;11.904;2023-03-04T14:20:04;23.10;30.50
64817;DHT22;53289;45.602;11.904;2023-03-04T14:22:32;23.00;31.20
64817;DHT22;53289;45.602;11.904;2023-03-04T14:25:21;22.90;31.50
64817;DHT22;53289;45.602;11.904;2023-03-04T14:27:48;22.90;31.90
64817;DHT22;53289;45.602;11.904;2023-03-04T14:30:26;22.80;32.10
64817;DHT22;53289;45.602;11.904;2023-03-04T14:32:53;22.70;31.30
64817;DHT22;53289;45.602;11.904;2023-03-04T14:35:27;22.50;31.90
64817;DHT22;53289;45.602;11.904;2023-03-04T14:38:06;22.20;32.10
64817;DHT22;53289;45.602;11.904;2023-03-04T14:40:39;21.90;32.40
64817;DHT22;53289;45.602;11.904;2023-03-04T14:43:26;21.60;33.00
64817;DHT22;53289;45.602;11.904;2023-03-04T14:45:54;21.30;33.40
64817;DHT22;53289;45.602;11.904;2023-03-04T14:48:33;21.10;33.70
64817;DHT22;53289;45.602;11.904;2023-03-04T14:51:00;21.10;34.10
64817;DHT22;53289;45.602;11.904;2023-03-04T14:53:31;20.90;34.50
64817;DHT22;53289;45.602;11.904;2023-03-04T14:56:01;20.90;34.90
64817;DHT22;53289;45.602;11.904;2023-03-04T14:58:31;20.80;35.00
64817;DHT22;53289;45.602;11.904;2023-03-04T15:01:17;20.70;34.80
64817;DHT22;53289;45.602;11.904;2023-03-04T15:04:06;20.60;34.70
64817;DHT22;53289;45.602;11.904;2023-03-04T15:06:36;20.60;34.80
64817;DHT22;53289;45.602;11.904;2023-03-04T15:12:06;20.60;34.90
64817;DHT22;53289;45.602;11.904;2023-03-04T15:17:21;20.50;35.20
64817;DHT22;53289;45.602;11.904;2023-03-04T15:20:39;20.40;35.30
64817;DHT22;53289;45.602;11.904;2023-03-04T15:25:14;20.30;35.40
64817;DHT22;53289;45.602;11.904;2023-03-04T15:27:41;20.10;35.80
64817;DHT22;53289;45.602;11.904;2023-03-04T15:30:32;19.90;35.90
64817;DHT22;53289;45.602;11.904;2023-03-04T15:32:59;19.70;36.20
64817;DHT22;53289;45.602;11.904;2023-03-04T15:35:30;19.40;36.50
64817;DHT22;53289;45.602;11.904;2023-03-04T15:37:56;19.10;37.00
64817;DHT22;53289;45.602;11.904;2023-03-04T15:42:53;18.60;38.30
64817;DHT22;53289;45.602;11.904;2023-03-04T15:45:26;18.40;38.60
64817;DHT22;53289;45.602;11.904;2023-03-04T15:47:53;18.20;38.90
64817;DHT22;53289;45.602;11.904;2023-03-04T15:50:20;18.10;39.20
64817;DHT22;53289;45.602;11.904;2023-03-04T15:52:46;17.90;39.50
64817;DHT22;53289;45.602;11.904;2023-03-04T15:55:17;17.80;39.70
64817;DHT22;53289;45.602;11.904;2023-03-04T15:57:46;17.70;39.80
64817;DHT22;53289;45.602;11.904;2023-03-04T16:00:13;17.50;40.10
64817;DHT22;53289;45.602;11.904;2023-03-04T16:02:40;17.40;40.10
64817;DHT22;53289;45.602;11.904;2023-03-04T16:05:07;17.10;40.70
64817;DHT22;53289;45.602;11.904;2023-03-04T16:07:33;17.10;40.80
64817;DHT22;53289;45.602;11.904;2023-03-04T16:10:04;16.90;41.00
64817;DHT22;53289;45.602;11.904;2023-03-04T16:12:31;16.70;41.50
64817;DHT22;53289;45.602;11.904;2023-03-04T16:14:57;16.70;41.70
64817;DHT22;53289;45.602;11.904;2023-03-04T16:17:23;16.60;42.00
64817;DHT22;53289;45.602;11.904;2023-03-04T16:19:49;16.40;42.40
64817;DHT22;53289;45.602;11.904;2023-03-04T16:22:18;16.30;42.60
64817;DHT22;53289;45.602;11.904;2023-03-04T16:24:49;16.20;42.80
64817;DHT22;53289;45.602;11.904;2023-03-04T16:27:16;16.10;43.00
64817;DHT22;53289;45.602;11.904;2023-03-04T16:29:44;16.00;43.20
64817;DHT22;53289;45.602;11.904;2023-03-04T16:32:10;16.00;43.30
64817;DHT22;53289;45.602;11.904;2023-03-04T16:34:36;15.90;43.60
64817;DHT22;53289;45.602;11.904;2023-03-04T16:37:06;15.90;43.80
64817;DHT22;53289;45.602;11.904;2023-03-04T16:39:32;15.70;44.20
64817;DHT22;53289;45.602;11.904;2023-03-04T16:41:58;15.50;44.60
64817;DHT22;53289;45.602;11.904;2023-03-04T16:44:24;15.40;45.10
64817;DHT22;53289;45.602;11.904;2023-03-04T16:46:50;15.20;45.60
64817;DHT22;53289;45.602;11.904;2023-03-04T16:49:16;15.00;46.10
64817;DHT22;53289;45.602;11.904;2023-03-04T16:51:48;14.80;46.50
64817;DHT22;53289;45.602;11.904;2023-03-04T16:54:26;14.70;46.90
64817;DHT22;53289;45.602;11.904;2023-03-04T16:56:55;14.50;47.40
64817;DHT22;53289;45.602;11.904;2023-03-04T16:59:21;14.30;47.80
64817;DHT22;53289;45.602;11.904;2023-03-04T17:01:48;14.20;48.30
64817;DHT22;53289;45.602;11.904;2023-03-04T17:04:14;14.00;48.60
64817;DHT22;53289;45.602;11.904;2023-03-04T17:06:40;13.90;49.00
64817;DHT22;53289;45.602;11.904;2023-03-04T17:09:07;13.60;49.20
64817;DHT22;53289;45.602;11.904;2023-03-04T17:11:33;13.40;49.50
64817;DHT22;53289;45.602;11.904;2023-03-04T17:13:59;13.30;49.70
64817;DHT22;53289;45.602;11.904;2023-03-04T17:16:25;13.20;50.10
64817;DHT22;53289;45.602;11.904;2023-03-04T17:18:51;13.00;50.30
64817;DHT22;53289;45.602;11.904;2023-03-04T17:21:24;12.90;50.50
64817;DHT22;53289;45.602;11.904;2023-03-04T17:23:51;12.90;50.70
64817;DHT22;53289;45.602;11.904;2023-03-04T17:26:17;12.70;50.90
64817;DHT22;53289;45.602;11.904;2023-03-04T17:28:46;12.60;51.20
64817;DHT22;53289;45.602;11.904;2023-03-04T17:31:15;12.40;51.40
64817;DHT22;53289;45.602;11.904;2023-03-04T17:33:42;12.40;51.70
64817;DHT22;53289;45.602;11.904;2023-03-04T17:36:11;12.20;51.90
64817;DHT22;53289;45.602;11.904;2023-03-04T17:38:37;12.20;52.10
64817;DHT22;53289;45.602;11.904;2023-03-04T17:41:04;12.00;52.30
64817;DHT22;53289;45.602;11.904;2023-03-04T17:43:30;11.90;52.50
64817;DHT22;53289;45.602;11.904;2023-03-04T17:46:08;11.80;52.70
64817;DHT22;53289;45.602;11.904;2023-03-04T17:48:35;11.70;52.90